createdAt,value
2022-09-01T00:02:08.987Z,0.40
2022-09-01T00:07:15.548Z,0.63
2022-09-01T00:12:23.074Z,0.30
2022-09-01T00:17:30.338Z,0.43
2022-09-01T00:22:35.741Z,0.20
2022-09-01T00:27:41.295Z,0.30
2022-09-01T00:32:48.734Z,0.50
2022-09-01T00:37:54.095Z,0.52
2022-09-01T00:43:00.656Z,0.30
2022-09-01T00:48:07.551Z,0.30
2022-09-01T00:53:13.545Z,0.32
2022-09-01T00:58:20.342Z,0.50
2022-09-01T01:03:27.404Z,0.45
2022-09-01T01:08:35.405Z,0.30
2022-09-01T01:13:51.454Z,0.30
2022-09-01T01:18:58.431Z,0.52
2022-09-01T01:24:10.992Z,0.20
2022-09-01T01:29:19.153Z,0.28
2022-09-01T01:34:24.989Z,0.30
2022-09-01T01:39:30.999Z,0.35
2022-09-01T01:44:39.049Z,0.50
2022-09-01T01:49:45.549Z,0.10
2022-09-01T01:54:51.801Z,0.40
2022-09-01T01:59:58.745Z,0.30
2022-09-01T02:05:04.327Z,0.32
2022-09-01T02:10:10.502Z,0.40
2022-09-01T02:15:17.976Z,0.30
2022-09-01T02:20:25.135Z,0.30
2022-09-01T02:25:32.306Z,0.52
2022-09-01T02:30:41.597Z,0.40
2022-09-01T02:35:47.244Z,0.40
2022-09-01T02:40:53.942Z,0.43
2022-09-01T02:46:03.261Z,0.45
2022-09-01T02:51:12.042Z,0.40
2022-09-01T02:56:19.028Z,0.60
2022-09-01T03:01:29.892Z,0.40
2022-09-01T03:06:38.182Z,0.40
2022-09-01T03:11:46.094Z,0.57
2022-09-01T03:16:54.265Z,0.30
2022-09-01T03:22:00.558Z,0.50
2022-09-01T03:27:12.047Z,0.40
2022-09-01T03:32:19.739Z,0.47
2022-09-01T03:37:25.264Z,0.40
2022-09-01T03:42:32.743Z,0.45
2022-09-01T03:47:41.177Z,0.55
2022-09-01T03:52:49.510Z,0.40
2022-09-01T03:57:56.193Z,0.27
2022-09-01T04:03:03.988Z,0.40
2022-09-01T04:08:13.762Z,0.20
2022-09-01T04:13:20.239Z,0.25
2022-09-01T04:18:27.732Z,0.22
2022-09-01T04:23:35.912Z,0.38
2022-09-01T04:28:48.684Z,0.50
2022-09-01T04:33:56.220Z,0.47
2022-09-01T04:39:09.420Z,0.50
2022-09-01T04:44:19.503Z,0.50
2022-09-01T04:49:27.409Z,0.38
2022-09-01T04:54:37.343Z,0.50
2022-09-01T04:59:44.624Z,0.90
2022-09-01T05:04:52.480Z,0.20
2022-09-01T05:10:01.106Z,0.77
2022-09-01T05:15:33.349Z,0.63
2022-09-01T05:20:42.386Z,0.65
2022-09-01T05:25:50.536Z,0.60
2022-09-01T05:30:55.978Z,0.63
2022-09-01T05:36:05.020Z,0.80
2022-09-01T05:46:19.304Z,0.73
2022-09-01T05:51:45.490Z,0.70
2022-09-01T05:56:55.055Z,0.50
2022-09-01T06:02:09.211Z,0.80
2022-09-01T06:07:18.248Z,1.20
2022-09-01T06:12:30.195Z,1.30
2022-09-01T06:17:36.984Z,0.75
2022-09-01T06:22:45.745Z,0.52
2022-09-01T06:27:54.476Z,0.80
2022-09-01T06:33:01.485Z,0.60
2022-09-01T06:38:09.107Z,0.90
2022-09-01T06:43:19.793Z,0.30
2022-09-01T06:48:27.328Z,0.63
2022-09-01T06:53:56.943Z,1.13
2022-09-01T06:59:06.337Z,0.60
2022-09-01T07:04:14.616Z,0.70
2022-09-01T07:09:47.401Z,0.40
2022-09-01T07:20:29.502Z,0.30
2022-09-01T07:26:01.098Z,0.43
2022-09-01T07:48:11.778Z,0.40
2022-09-01T07:53:25.718Z,0.10
2022-09-01T07:58:33.989Z,0.30
2022-09-01T08:03:42.528Z,0.30
2022-09-01T08:08:56.761Z,0.20
2022-09-01T08:14:05.496Z,0.20
2022-09-01T08:19:19.394Z,0.22
2022-09-01T08:24:47.186Z,0.20
2022-09-01T08:29:54.546Z,0.20
2022-09-01T08:35:00.876Z,0.30
2022-09-01T08:40:09.681Z,0.30
2022-09-01T08:45:22.796Z,0.20
2022-09-01T08:50:28.605Z,0.20
2022-09-01T08:55:45.800Z,0.10
2022-09-01T09:00:58.357Z,0.30
2022-09-01T09:06:14.970Z,0.20
2022-09-01T09:11:54.362Z,0.13
2022-09-01T09:17:01.980Z,0.03
2022-09-01T09:22:11.324Z,0.00
2022-09-01T09:27:21.881Z,0.17
2022-09-01T09:33:16.002Z,0.22
2022-09-01T09:38:24.294Z,0.22
2022-09-01T09:43:31.619Z,0.55
2022-09-01T09:48:38.776Z,0.20
2022-09-01T09:53:44.138Z,0.20
2022-09-01T09:58:50.719Z,0.25
2022-09-01T10:04:00.525Z,0.15
2022-09-01T10:09:08.172Z,0.00
2022-09-01T10:14:51.631Z,0.30
2022-09-01T10:19:50.781Z,0.50
2022-09-01T10:24:56.553Z,0.40
2022-09-01T10:30:12.625Z,0.22
2022-09-01T10:35:24.939Z,0.20
2022-09-01T10:40:43.896Z,0.30
2022-09-01T10:45:57.646Z,0.10
2022-09-01T10:51:56.640Z,0.20
2022-09-01T10:57:08.937Z,0.10
2022-09-01T11:08:14.699Z,0.10
2022-09-01T11:13:27.044Z,0.30
2022-09-01T11:18:32.974Z,0.30
2022-09-01T11:23:41.327Z,0.20
2022-09-01T11:28:48.876Z,0.20
2022-09-01T11:34:13.363Z,0.10
2022-09-01T11:39:33.154Z,0.30
2022-09-01T11:44:42.953Z,0.05
2022-09-01T11:49:55.036Z,0.10
2022-09-01T11:55:02.120Z,0.30
2022-09-01T12:00:11.774Z,0.10
2022-09-01T12:05:32.187Z,0.10
2022-09-01T12:10:40.658Z,0.20
2022-09-01T12:16:14.491Z,0.10
2022-09-01T12:21:23.331Z,0.20
2022-09-01T12:26:31.844Z,0.10
2022-09-01T12:31:37.749Z,0.13
2022-09-01T12:36:43.444Z,0.20
2022-09-01T12:42:05.045Z,0.10
2022-09-01T12:47:13.843Z,0.10
2022-09-01T12:52:26.414Z,0.30
2022-09-01T12:57:35.729Z,0.20
2022-09-01T13:02:42.502Z,0.15
2022-09-01T13:07:48.161Z,0.30
2022-09-01T13:12:55.468Z,0.10
2022-09-01T13:18:00.883Z,0.10
2022-09-01T13:23:06.560Z,0.20
2022-09-01T13:28:14.527Z,0.22
2022-09-01T13:33:21.023Z,0.20
2022-09-01T13:38:28.838Z,0.10
2022-09-01T13:43:36.831Z,0.17
2022-09-01T13:49:03.172Z,0.13
2022-09-01T13:54:10.255Z,0.22
2022-09-01T13:59:17.287Z,0.17
2022-09-01T14:04:23.423Z,0.10
2022-09-01T14:09:29.247Z,0.20
2022-09-01T14:20:02.405Z,0.10
2022-09-01T14:25:09.292Z,0.30
2022-09-01T14:30:20.913Z,0.17
2022-09-01T14:35:26.742Z,0.00
2022-09-01T14:40:32.442Z,0.15
2022-09-01T14:45:39.703Z,0.17
2022-09-01T14:50:47.313Z,0.22
2022-09-01T14:55:56.264Z,0.13
2022-09-01T15:01:23.532Z,0.17
2022-09-01T15:06:29.422Z,0.40
2022-09-01T15:11:35.896Z,0.20
2022-09-01T15:16:51.467Z,0.20
2022-09-01T15:21:57.116Z,0.30
2022-09-01T15:27:02.609Z,0.40
2022-09-01T15:32:09.588Z,0.30
2022-09-01T15:37:26.282Z,0.20
2022-09-01T15:42:31.837Z,0.40
2022-09-01T15:47:44.960Z,0.30
2022-09-01T15:52:53.832Z,0.20
2022-09-01T15:58:00.478Z,0.63
2022-09-01T16:03:08.025Z,0.40
2022-09-01T16:08:14.212Z,0.20
2022-09-01T16:13:20.171Z,0.30
2022-09-01T16:18:32.756Z,0.40
2022-09-01T16:23:45.557Z,0.20
2022-09-01T16:28:53.617Z,0.40
2022-09-01T16:34:03.223Z,0.50
2022-09-01T16:39:15.284Z,0.32
2022-09-01T16:44:29.613Z,0.38
2022-09-01T16:49:40.859Z,0.52
2022-09-01T16:54:59.381Z,0.30
2022-09-01T17:00:06.780Z,0.22
2022-09-01T17:05:22.325Z,0.40
2022-09-01T17:10:35.334Z,0.90
2022-09-01T17:15:41.339Z,0.73
2022-09-01T17:20:54.914Z,0.70
2022-09-01T17:26:06.949Z,0.63
2022-09-01T17:31:14.773Z,0.77
2022-09-01T17:36:29.602Z,0.50
2022-09-01T17:41:40.549Z,0.60
2022-09-01T17:46:50.051Z,0.32
2022-09-01T17:52:04.126Z,0.60
2022-09-01T17:57:16.236Z,0.50
2022-09-01T18:02:58.573Z,0.70
2022-09-01T18:08:26.915Z,0.85
2022-09-01T18:13:53.016Z,0.70
2022-09-01T18:19:03.254Z,1.10
2022-09-01T18:24:18.893Z,1.05
2022-09-01T18:29:29.891Z,1.60
2022-09-01T18:34:46.699Z,1.98
2022-09-01T18:39:59.226Z,1.20
2022-09-01T18:45:09.134Z,1.15
2022-09-01T18:50:19.094Z,1.65
2022-09-01T18:55:31.353Z,1.70
2022-09-01T19:00:43.151Z,1.50
2022-09-01T19:06:05.028Z,1.70
2022-09-01T19:11:19.667Z,2.00
2022-09-01T19:16:33.687Z,2.53
2022-09-01T19:21:39.989Z,2.03
2022-09-01T19:26:49.927Z,2.55
2022-09-01T19:32:00.377Z,2.80
2022-09-01T19:37:07.304Z,1.73
2022-09-01T19:42:19.218Z,1.95
2022-09-01T19:47:31.447Z,2.00
2022-09-01T19:52:40.700Z,1.67
2022-09-01T19:57:51.843Z,1.98
2022-09-01T20:03:06.704Z,1.95
2022-09-01T20:08:17.044Z,1.60
2022-09-01T20:13:45.080Z,1.23
2022-09-01T20:18:54.056Z,1.27
2022-09-01T20:29:11.008Z,1.70
2022-09-01T20:34:26.780Z,1.50
2022-09-01T20:39:56.364Z,1.60
2022-09-01T20:45:11.508Z,2.45
2022-09-01T20:50:17.233Z,3.30
2022-09-01T20:55:28.442Z,3.17
2022-09-01T21:00:38.784Z,3.20
2022-09-01T21:05:49.558Z,2.13
2022-09-01T21:11:00.546Z,2.10
2022-09-01T21:16:10.499Z,2.45
2022-09-01T21:21:29.477Z,3.13
2022-09-01T21:26:38.061Z,2.40
2022-09-01T21:31:45.318Z,2.53
2022-09-01T21:36:50.763Z,2.10
2022-09-01T21:42:02.032Z,1.77
2022-09-01T21:47:09.269Z,1.85
2022-09-01T21:52:16.361Z,2.95
2022-09-01T21:57:23.390Z,1.45
2022-09-01T22:02:33.319Z,1.55
2022-09-01T22:07:40.682Z,2.03
2022-09-01T22:12:47.970Z,2.15
2022-09-01T22:17:55.469Z,1.65
2022-09-01T22:23:02.317Z,1.92
2022-09-01T22:28:08.427Z,1.83
2022-09-01T22:33:16.140Z,1.95
2022-09-01T22:38:22.690Z,1.73
2022-09-01T22:43:29.040Z,2.13
2022-09-01T22:48:35.790Z,1.38
2022-09-01T22:53:42.587Z,1.90
2022-09-01T22:58:48.203Z,1.33
2022-09-01T23:03:59.733Z,1.42
2022-09-01T23:09:05.621Z,1.60
2022-09-01T23:14:11.422Z,2.00
2022-09-01T23:19:18.356Z,1.80
2022-09-01T23:24:24.004Z,1.80
2022-09-01T23:29:29.549Z,2.60
2022-09-01T23:34:37.577Z,3.10
2022-09-01T23:39:42.989Z,3.95
2022-09-01T23:44:48.519Z,3.33
2022-09-01T23:49:56.763Z,3.42
2022-09-01T23:55:03.250Z,3.33
